Nearby METAR Reports

KLNK - Lincoln, Nebraska, USA
Distance from station: WNW 8mi, 13km
Updated: Sat, 20-Jan-2018 1:54am CST
Clear
Clear
 Wind from N
Wind: N 3 mph , 6 km/h
Temperature: 27°F , -3°C
Dew Point: 23°F , -5°C
Humidity: 86%
Barometer: 29.79 inHg , 1008.8 hPa
Clouds: Clear
Visibility: 10 miles , 16 km
2018/01/20 07:54 KLNK 200754Z AUTO 01003KT 10SM CLR M03/M05 A2979 RMK AO2 SLP095 T10331050
KAHQ - Wahoo, Nebraska, USA
Distance from station: N 31mi, 49km
Updated: Sat, 20-Jan-2018 2:15am CST
Partly Cloudy
Partly Cloudy
 Wind from calm
Wind: Calm
Temperature: 28°F , -2°C
Dew Point: 27°F , -3°C
Humidity: 93%
Barometer: 29.79 inHg , 1008.8 hPa
Clouds: Partly Cloudy
Visibility: 10 miles , 16 km
Cloud details: Partly Cloudy 11000 ft
2018/01/20 08:15 KAHQ 200815Z AUTO 00000KT 10SM SCT110 M02/M03 A2979 RMK AO2 T10191031
 
KBIE - Beatrice Municip, Nebraska, USA
Distance from station: S 36mi, 57km
Updated: Sat, 20-Jan-2018 2:15am CST
Clear
Clear
 Wind from ESE
Wind: ESE 3 mph , 6 km/h
Temperature: 32°F , 0°C
Dew Point: 27°F , -3°C
Humidity: 80%
Barometer: 29.78 inHg , 1008.5 hPa
Clouds: Clear
Visibility: 10 miles , 16 km
2018/01/20 08:15 KBIE 200815Z AUTO 11003KT 10SM CLR 00/M03 A2978 RMK AO2 T10051031
KMLE - Omaha/Millard, Nebraska, USA
Distance from station: NE 39mi, 63km
Updated: Sat, 20-Jan-2018 2:15am CST
Clear
Clear
 Wind from calm
Wind: Calm
Temperature: 28°F , -2°C
Dew Point: 25°F , -4°C
Humidity: 86%
Barometer: 29.79 inHg , 1008.8 hPa
Clouds: Clear
Visibility: 10 miles , 16 km
2018/01/20 08:15 KMLE 200815Z AUTO 00000KT 10SM CLR M02/M04 A2979 RMK AO2 T10251039
 
KPMV - Plattsmouth Muni, Nebraska, USA
Distance from station: ENE 39mi, 63km
Updated: Sat, 20-Jan-2018 2:15am CST
Clear
Clear
 Wind from calm
Wind: Calm
Temperature: 32°F , 0°C
Dew Point: 27°F , -3°C
Humidity: 80%
Barometer: 29.78 inHg , 1008.5 hPa
Clouds: Clear
Visibility: 10 miles , 16 km
2018/01/20 08:15 KPMV 200815Z AUTO 00000KT 10SM CLR 00/M03 A2978 RMK AO2 T10041026
KAFK - Nebraska City, Nebraska, USA
Distance from station: ESE 43mi, 69km
Updated: Sat, 20-Jan-2018 2:15am CST
Clear
Clear
 Wind from calm
Wind: Calm
Temperature: 32°F , 0°C
Dew Point: 28°F , -2°C
Humidity: 87%
Barometer: 29.79 inHg , 1008.8 hPa
Clouds: Clear
Visibility: 10 miles , 16 km
2018/01/20 08:15 KAFK 200815Z AUTO 00000KT 10SM CLR 00/M02 A2979 RMK AO2 T10011020
 
KOFF - Offutt Afb/Belle, Nebraska, USA
Distance from station: ENE 44mi, 70km
Updated: Sat, 20-Jan-2018 1:56am CST
Clear
Clear
 Wind from calm
Wind: Calm
Temperature: 25°F , -4°C
Dew Point: 23°F , -5°C
Humidity: 93%
Barometer: 29.77 inHg , 1008.1 hPa
Clouds: Clear
Visibility: 10 miles , 16 km
2018/01/20 07:56 KOFF 200756Z AUTO 00000KT 10SM CLR M04/M05 A2977 RMK AO2 SLP094 T10431053 $
KFET - Fremont Muni Arp, Nebraska, USA
Distance from station: N 46mi, 74km
Updated: Sat, 20-Jan-2018 2:15am CST
Clear
Clear
 Wind from calm
Wind: Calm
Temperature: 27°F , -3°C
Dew Point: 25°F , -4°C
Humidity: 93%
Barometer: 29.79 inHg , 1008.8 hPa
Clouds: Clear
Visibility: 10 miles , 16 km
2018/01/20 08:15 KFET 200815Z AUTO 00000KT 10SM CLR M03/M04 A2979 RMK AO2 T10261040
 
KBTA - Blair Muni, Nebraska, USA
Distance from station: NNE 51mi, 82km
Updated: Sat, 20-Jan-2018 2:15am CST
Clear
Clear
 Wind from calm
Wind: Calm
Temperature: 34°F , 1°C
Dew Point: 28°F , -2°C
Humidity: 81%
Barometer: 29.77 inHg , 1008.1 hPa
Clouds: Clear
Visibility: 10 miles , 16 km
2018/01/20 08:15 KBTA 200815Z AUTO 00000KT 10SM CLR 01/M02 A2977 RMK AO2 T00071023
KJYR - York, Nebraska, USA
Distance from station: W 52mi, 84km
Updated: Sat, 20-Jan-2018 2:15am CST
Clear
Clear
 Wind from NNE
Wind: NNE 8 mph , 13 km/h
Temperature: 25°F , -4°C
Wind Chill: 16°F , -9°C
Dew Point: 25°F , -4°C
Humidity: 100%
Barometer: 29.77 inHg , 1008.1 hPa
Clouds: Clear
Visibility: 10 miles , 16 km
2018/01/20 08:15 KJYR 200815Z AUTO 02007KT 10SM CLR M04/M04 A2977 RMK AO2
 
KOMA - Omaha/Eppley, Nebraska, USA
Distance from station: NE 53mi, 85km
Updated: Sat, 20-Jan-2018 1:52am CST
Few Clouds
Few Clouds
 Wind from S
Wind: S 3 mph , 6 km/h
Temperature: 27°F , -3°C
Dew Point: 25°F , -4°C
Humidity: 93%
Barometer: 29.78 inHg , 1008.5 hPa
Clouds: Few Clouds
Visibility: 10 miles , 16 km
Cloud details: Few Clouds 25000 ft
2018/01/20 07:52 KOMA 200752Z 18003KT 10SM FEW250 M03/M04 A2978 RMK AO2 SLP090 T10281044
KOLU - Columbus Muni, Nebraska, USA
Distance from station: NW 58mi, 93km
Updated: Sat, 20-Jan-2018 1:56am CST
Clear
Clear
 Wind from NW
Wind: NW 6 mph , 9 km/h
Temperature: 25°F , -4°C
Wind Chill: 18°F , -8°C
Dew Point: 21°F , -6°C
Humidity: 86%
Barometer: 29.78 inHg , 1008.5 hPa
Clouds: Clear
Visibility: 10 miles , 16 km
2018/01/20 07:56 KOLU 200756Z AUTO 31005KT 10SM CLR M04/M06 A2978 RMK AO2 SLP096 T10441056 FZRANO